Time;durP1;ratioP1;P1;durP2;ratioP2;P2;SDS_P1;SDS_P2;PMS_P1;PMS_P2;Temp;Humidity;BMP_temperature;BMP_pressure;BME280_temperature;BME280_humidity;BME280_pressure;Samples;Min_cycle;Max_cycle;Signal;HPM_P1;HPM_P2
2022/06/17 00:01:41;;;;;;;1.50;1.30;;;23.00;50.40;23.50;97007.00;;;;5070065;28;20212;-86
2022/06/17 00:04:13;;;;;;;1.83;1.37;;;22.90;50.40;23.50;96997.00;;;;5070531;28;20208;-86
2022/06/17 00:06:48;;;;;;;1.40;1.30;;;22.90;50.60;23.40;97002.00;;;;5070559;28;20243;-86
2022/06/17 00:09:19;;;;;;;1.60;1.50;;;22.90;50.80;23.40;97005.00;;;;5069912;28;20261;-87
2022/06/17 00:11:47;;;;;;;2.70;1.57;;;22.80;50.80;23.30;96990.00;;;;5080752;28;20195;-86
2022/06/17 00:14:18;;;;;;;1.60;1.50;;;22.70;50.90;23.20;96987.00;;;;5090082;28;20263;-87
2022/06/17 00:16:46;;;;;;;2.43;1.47;;;22.70;51.10;23.20;96980.00;;;;5064297;28;20195;-86
2022/06/17 00:19:18;;;;;;;2.73;1.53;;;22.60;51.20;23.10;96989.00;;;;5069319;28;20212;-87
2022/06/17 00:21:49;;;;;;;2.63;1.50;;;22.60;51.40;23.10;97005.00;;;;5069472;28;20200;-86
2022/06/17 00:24:22;;;;;;;1.97;1.73;;;22.50;51.50;23.00;97000.00;;;;5069882;28;20184;-86
2022/06/17 00:26:51;;;;;;;1.47;1.37;;;22.50;51.80;23.00;97013.00;;;;5069706;28;20208;-86
2022/06/17 00:29:22;;;;;;;2.17;1.57;;;22.40;52.00;22.90;97006.00;;;;5069849;28;20968;-86
2022/06/17 00:31:49;;;;;;;1.93;1.77;;;22.40;52.20;22.90;97017.00;;;;5069676;28;20185;-86
2022/06/17 00:34:18;;;;;;;2.30;1.83;;;22.30;52.30;22.80;97016.00;;;;5069824;28;20188;-86
2022/06/17 00:36:46;;;;;;;1.90;1.80;;;22.30;52.30;22.80;97018.00;;;;5069781;28;20608;-86
2022/06/17 00:39:18;;;;;;;1.70;1.60;;;22.20;52.40;22.70;97015.00;;;;5103227;22;20223;-88
2022/06/17 00:41:51;;;;;;;3.27;1.60;;;22.20;52.50;22.60;97011.00;;;;5074713;28;20593;-88
2022/06/17 00:44:28;;;;;;;1.70;1.60;;;22.10;52.70;22.60;97022.00;;;;5079430;28;20286;-88
2022/06/17 00:47:03;;;;;;;1.83;1.50;;;22.10;53.00;22.50;97021.00;;;;5075051;28;20239;-88
2022/06/17 00:49:43;;;;;;;2.73;1.77;;;22.00;53.10;22.50;97011.00;;;;5053689;28;20200;-89
2022/06/17 00:52:22;;;;;;;2.10;1.90;;;21.90;53.30;22.40;97011.00;;;;5061600;28;20204;-88
2022/06/17 00:54:55;;;;;;;1.67;1.57;;;21.90;53.80;22.30;97024.00;;;;5055017;28;20651;-87
2022/06/17 00:57:29;;;;;;;2.97;1.40;;;21.80;53.70;22.30;97023.00;;;;5050072;28;20318;-88
2022/06/17 01:00:16;;;;;;;1.60;1.50;;;21.80;54.00;22.20;97023.00;;;;5049364;28;20202;-88
2022/06/17 01:02:48;;;;;;;1.50;1.40;;;21.70;54.70;22.20;97020.00;;;;5054212;28;20208;-88
2022/06/17 01:05:21;;;;;;;1.60;1.50;;;21.70;54.40;22.20;97019.00;;;;5055125;28;20224;-88
2022/06/17 01:07:54;;;;;;;1.50;1.40;;;21.60;54.50;22.10;97018.00;;;;5053343;28;20842;-88
2022/06/17 01:10:21;;;;;;;1.40;1.30;;;21.60;54.60;22.00;97010.00;;;;5048918;28;20254;-88
2022/06/17 01:12:57;;;;;;;1.90;1.70;;;21.50;54.80;22.00;97024.00;;;;5052924;28;20246;-88
2022/06/17 01:15:28;;;;;;;1.57;1.47;;;21.40;55.10;21.90;97035.00;;;;5057457;28;20238;-89
2022/06/17 01:17:56;;;;;;;1.50;1.40;;;21.40;55.20;21.90;97042.00;;;;5059061;28;20311;-89
2022/06/17 01:20:29;;;;;;;1.30;1.20;;;21.30;55.40;21.80;97043.00;;;;5058549;28;20248;-89
2022/06/17 01:23:01;;;;;;;1.40;1.40;;;21.20;55.50;21.70;97047.00;;;;5050032;28;20219;-89
2022/06/17 01:25:33;;;;;;;2.23;1.63;;;21.20;55.70;21.70;97048.00;;;;5054763;28;20201;-89
2022/06/17 01:28:04;;;;;;;1.57;1.47;;;21.10;55.80;21.60;97055.00;;;;5055750;28;20644;-88
2022/06/17 01:30:39;;;;;;;1.80;1.70;;;21.10;55.90;21.60;97054.00;;;;5054902;28;20197;-89
2022/06/17 01:33:13;;;;;;;1.97;1.70;;;21.00;56.10;21.50;97061.00;;;;5047939;28;20549;-88
2022/06/17 01:35:50;;;;;;;2.10;1.50;;;21.00;56.00;21.50;97053.00;;;;5056770;28;20223;-89
2022/06/17 01:38:19;;;;;;;1.90;1.63;;;21.00;56.00;21.40;97052.00;;;;5053468;28;20222;-88
2022/06/17 01:40:47;;;;;;;1.50;1.40;;;20.90;56.00;21.30;97054.00;;;;5054511;28;20272;-88
2022/06/17 01:43:19;;;;;;;1.40;1.40;;;20.80;56.00;21.30;97053.00;;;;5054687;28;20210;-88
2022/06/17 01:45:55;;;;;;;1.57;1.47;;;20.80;56.10;21.20;97062.00;;;;5054383;28;20211;-89
2022/06/17 01:48:28;;;;;;;1.70;1.60;;;20.70;56.10;21.10;97055.00;;;;5053254;28;20785;-89
2022/06/17 01:50:58;;;;;;;2.30;1.70;;;20.70;56.10;21.10;97053.00;;;;5046711;28;20268;-89
2022/06/17 01:53:32;;;;;;;2.07;1.70;;;20.60;56.30;21.00;97055.00;;;;5054357;28;20616;-89
2022/06/17 01:56:05;;;;;;;1.60;1.50;;;20.50;56.30;20.90;97042.00;;;;5064232;28;20196;-89
2022/06/17 01:58:40;;;;;;;1.87;1.77;;;20.50;56.50;20.90;97046.00;;;;5062469;28;20216;-89
2022/06/17 02:01:10;;;;;;;2.00;1.90;;;20.40;56.70;20.80;97039.00;;;;5060638;28;20658;-88
2022/06/17 02:03:45;;;;;;;1.80;1.70;;;20.30;56.60;20.80;97045.00;;;;5055789;28;20278;-86
2022/06/17 02:06:22;;;;;;;1.80;1.70;;;20.30;56.70;20.70;97040.00;;;;5048721;28;20256;-89
2022/06/17 02:08:52;;;;;;;1.67;1.60;;;20.20;57.00;20.60;97036.00;;;;5053503;28;20268;-89
2022/06/17 02:11:19;;;;;;;1.60;1.50;;;20.10;57.00;20.60;97031.00;;;;5053994;28;20192;-89
2022/06/17 02:13:47;;;;;;;1.63;1.53;;;20.10;57.10;20.50;97027.00;;;;5073092;28;20650;-89
2022/06/17 02:16:17;;;;;;;1.80;1.70;;;20.10;57.20;20.50;97024.00;;;;5063225;28;20671;-89
2022/06/17 02:18:46;;;;;;;1.70;1.60;;;20.00;57.30;20.40;97015.00;;;;5053022;28;20244;-89
2022/06/17 02:21:23;;;;;;;1.60;1.50;;;19.90;57.40;20.40;97000.00;;;;5053074;28;20258;-88
2022/06/17 02:23:54;;;;;;;2.07;1.87;;;19.90;57.70;20.30;97001.00;;;;5049605;28;20200;-89
2022/06/17 02:26:23;;;;;;;1.40;1.40;;;19.80;57.70;20.20;96988.00;;;;5053176;28;20304;-89
2022/06/17 02:28:52;;;;;;;2.03;1.93;;;19.80;57.80;20.20;96988.00;;;;5045219;28;20311;-89
2022/06/17 02:31:20;;;;;;;1.63;1.53;;;19.70;58.50;20.20;96992.00;;;;5053357;28;20881;-89
2022/06/17 02:33:51;;;;;;;1.60;1.50;;;19.70;58.30;20.20;96988.00;;;;5071605;28;20244;-89
2022/06/17 02:36:28;;;;;;;1.77;1.67;;;19.70;58.50;20.10;96991.00;;;;5068675;28;20199;-88
2022/06/17 02:38:58;;;;;;;1.77;1.67;;;19.70;58.70;20.10;96993.00;;;;5052068;28;20319;-89
2022/06/17 02:41:25;;;;;;;1.80;1.70;;;19.60;58.80;20.10;96988.00;;;;5053414;28;20205;-89
2022/06/17 02:44:14;;;;;;;1.73;1.63;;;19.60;59.00;20.00;96989.00;;;;5053627;28;20197;-89
2022/06/17 02:46:44;;;;;;;1.87;1.77;;;19.60;59.80;20.00;96991.00;;;;5053751;28;20229;-88
2022/06/17 02:49:19;;;;;;;2.83;2.20;;;19.50;59.40;20.00;96989.00;;;;5047971;28;20308;-88
2022/06/17 02:51:46;;;;;;;2.10;2.00;;;19.50;59.70;20.00;97003.00;;;;5053159;28;20231;-88
2022/06/17 02:54:22;;;;;;;1.73;1.63;;;19.50;59.70;19.90;97012.00;;;;5052501;28;20281;-88
2022/06/17 02:56:54;;;;;;;2.00;1.90;;;19.50;59.90;19.90;97004.00;;;;5054633;28;20251;-87
2022/06/17 02:59:29;;;;;;;2.00;1.90;;;19.40;59.80;19.80;97006.00;;;;5052523;28;20217;-88
2022/06/17 03:02:02;;;;;;;2.53;1.80;;;19.40;60.00;19.80;97014.00;;;;5050985;28;20222;-88
2022/06/17 03:04:33;;;;;;;2.00;1.90;;;19.40;60.10;19.80;97019.00;;;;5072263;28;20222;-87
2022/06/17 03:07:01;;;;;;;1.87;1.77;;;19.40;60.20;19.80;97023.00;;;;5058436;28;20211;-88
2022/06/17 03:09:33;;;;;;;2.10;1.90;;;19.40;60.20;19.80;97023.00;;;;5055674;28;20385;-87
2022/06/17 03:12:08;;;;;;;2.83;2.00;;;19.30;60.40;19.80;97031.00;;;;5051393;28;20246;-88
2022/06/17 03:14:42;;;;;;;1.83;1.73;;;19.40;60.40;19.80;97029.00;;;;5054872;28;20219;-87
2022/06/17 03:17:16;;;;;;;2.73;2.07;;;19.30;60.10;19.80;97029.00;;;;5056503;28;20224;-88
2022/06/17 03:19:46;;;;;;;2.03;1.90;;;19.30;60.00;19.80;97028.00;;;;5063331;28;20682;-88
2022/06/17 03:22:14;;;;;;;1.60;1.50;;;19.30;59.90;19.70;97019.00;;;;5071768;28;20207;-87
2022/06/17 03:24:59;;;;;;;2.70;1.87;;;19.30;59.90;19.70;97024.00;;;;5071654;28;20196;-88
2022/06/17 03:27:39;;;;;;;2.07;1.80;;;19.30;60.00;19.70;97030.00;;;;5052416;28;20221;-88
2022/06/17 03:30:08;;;;;;;1.87;1.77;;;19.30;60.00;19.60;97031.00;;;;5053369;28;20192;-88
2022/06/17 03:32:39;;;;;;;2.20;1.77;;;19.20;59.90;19.60;97033.00;;;;5052448;28;20204;-87
2022/06/17 03:35:17;;;;;;;1.90;1.80;;;19.20;60.20;19.60;97021.00;;;;5052241;28;20201;-89
2022/06/17 03:37:58;;;;;;;2.43;2.10;;;19.10;60.30;19.60;97027.00;;;;5052032;28;20310;-89
2022/06/17 03:40:35;;;;;;;2.07;1.70;;;19.10;60.80;19.60;97038.00;;;;5052282;28;20265;-88
2022/06/17 03:43:08;;;;;;;1.70;1.57;;;19.10;60.80;19.50;97037.00;;;;5052373;28;20211;-88
2022/06/17 03:45:44;;;;;;;1.87;1.77;;;19.10;60.80;19.50;97044.00;;;;5058591;28;20282;-88
2022/06/17 03:48:21;;;;;;;1.93;1.83;;;19.10;61.10;19.50;97039.00;;;;5059173;28;20294;-87
2022/06/17 03:50:50;;;;;;;1.93;1.70;;;19.00;61.20;19.50;97042.00;;;;5060705;28;20270;-88
2022/06/17 03:53:25;;;;;;;2.10;1.87;;;19.00;61.00;19.40;97024.00;;;;5053255;28;20628;-88
2022/06/17 03:55:57;;;;;;;2.07;1.97;;;19.00;61.40;19.40;97035.00;;;;5058516;28;20227;-88
2022/06/17 03:58:25;;;;;;;2.13;1.63;;;18.90;61.30;19.40;97041.00;;;;5062072;28;20718;-89
2022/06/17 04:00:59;;;;;;;2.63;1.77;;;18.90;61.40;19.40;97039.00;;;;5049505;28;20200;-89
2022/06/17 04:03:32;;;;;;;2.17;2.00;;;18.90;61.80;19.40;97048.00;;;;5064832;28;20221;-89
2022/06/17 04:06:05;;;;;;;1.90;1.80;;;18.90;61.80;19.30;97037.00;;;;5053156;28;20228;-89
2022/06/17 04:08:33;;;;;;;3.03;1.90;;;18.80;61.70;19.30;97033.00;;;;5056949;28;20676;-89
2022/06/17 04:11:02;;;;;;;2.37;2.17;;;18.80;61.60;19.30;97034.00;;;;5054536;28;20281;-89
2022/06/17 04:13:33;;;;;;;2.27;1.97;;;18.80;61.80;19.30;97043.00;;;;5064578;28;20208;-89
2022/06/17 04:16:16;;;;;;;2.23;2.00;;;18.80;62.00;19.30;97035.00;;;;5064037;28;20185;-89
2022/06/17 04:18:43;;;;;;;2.10;1.90;;;18.80;62.30;19.30;97042.00;;;;5058139;28;20220;-89
2022/06/17 04:21:13;;;;;;;3.07;1.77;;;18.80;62.30;19.20;97038.00;;;;5063512;28;20264;-89
2022/06/17 04:23:42;;;;;;;3.03;1.97;;;18.80;62.60;19.20;97042.00;;;;5067017;28;20192;-89
2022/06/17 04:26:21;;;;;;;1.80;1.70;;;18.70;62.70;19.20;97054.00;;;;5065785;28;20272;-89
2022/06/17 04:28:53;;;;;;;2.10;2.00;;;18.80;63.10;19.20;97058.00;;;;5068802;28;20713;-89
2022/06/17 04:31:26;;;;;;;2.30;1.73;;;18.80;63.00;19.30;97069.00;;;;5056331;28;20243;-89
2022/06/17 04:33:59;;;;;;;2.57;2.37;;;18.80;63.30;19.30;97079.00;;;;5054625;28;20201;-89
2022/06/17 04:36:32;;;;;;;1.83;1.73;;;18.80;63.50;19.30;97079.00;;;;5058332;28;20277;-89
2022/06/17 04:39:07;;;;;;;2.40;1.73;;;18.80;63.60;19.30;97082.00;;;;5048646;28;20258;-89
2022/06/17 04:41:39;;;;;;;2.13;1.80;;;18.80;63.90;19.30;97091.00;;;;5054281;28;20227;-88
2022/06/17 04:44:07;;;;;;;2.40;2.20;;;18.80;64.00;19.40;97090.00;;;;5062596;28;20184;-88
2022/06/17 04:46:42;;;;;;;1.83;1.67;;;18.80;63.70;19.40;97096.00;;;;5066935;28;20196;-89
2022/06/17 04:49:19;;;;;;;1.90;1.80;;;18.80;64.30;19.40;97092.00;;;;5055260;28;20277;-88
2022/06/17 04:51:48;;;;;;;2.00;1.90;;;18.90;63.80;19.40;97088.00;;;;5058169;28;20200;-88
2022/06/17 04:54:16;;;;;;;1.93;1.80;;;18.90;63.20;19.50;97095.00;;;;5075515;28;20228;-88
2022/06/17 04:56:49;;;;;;;1.63;1.53;;;18.90;63.00;19.50;97081.00;;;;5058581;28;20283;-88
2022/06/17 04:59:33;;;;;;;3.73;1.90;;;18.90;62.90;19.60;97106.00;;;;5054501;28;20714;-88
2022/06/17 05:02:03;;;;;;;1.87;1.77;;;19.00;63.20;19.60;97108.00;;;;5053907;28;20196;-88
2022/06/17 05:04:30;;;;;;;1.70;1.60;;;19.00;62.60;19.70;97105.00;;;;5076083;28;20257;-89
2022/06/17 05:06:58;;;;;;;1.87;1.67;;;19.10;62.60;19.70;97105.00;;;;5061878;28;20681;-89
2022/06/17 05:09:32;;;;;;;1.83;1.70;;;19.10;62.60;19.80;97105.00;;;;5067545;28;20283;-89
2022/06/17 05:12:07;;;;;;;2.93;1.80;;;19.10;62.50;19.80;97114.00;;;;5058783;28;20196;-88
2022/06/17 05:14:45;;;;;;;1.63;1.53;;;19.20;62.20;19.80;97104.00;;;;5060747;28;20211;-88
2022/06/17 05:17:12;;;;;;;1.60;1.50;;;19.20;62.10;19.90;97113.00;;;;5074629;28;20257;-89
2022/06/17 05:19:40;;;;;;;1.93;1.83;;;19.30;61.90;20.00;97114.00;;;;5065495;28;20651;-88
2022/06/17 05:22:25;;;;;;;2.87;1.80;;;19.40;61.90;20.00;97111.00;;;;5056160;28;20201;-89
2022/06/17 05:24:52;;;;;;;1.70;1.60;;;19.40;62.50;20.10;97111.00;;;;5053900;28;20212;-89
2022/06/17 05:27:21;;;;;;;1.87;1.43;;;19.40;62.10;20.10;97117.00;;;;5061712;28;20216;-89
2022/06/17 05:29:48;;;;;;;1.77;1.67;;;19.50;61.90;20.20;97134.00;;;;5054963;28;20224;-89
2022/06/17 05:32:20;;;;;;;1.80;1.70;;;19.50;61.70;20.30;97123.00;;;;5054171;28;20276;-89
2022/06/17 05:34:50;;;;;;;1.77;1.43;;;19.60;61.60;20.30;97118.00;;;;5062908;28;20200;-88
2022/06/17 05:37:17;;;;;;;1.73;1.60;;;19.70;61.40;20.40;97119.00;;;;5056554;28;20640;-88
2022/06/17 05:39:44;;;;;;;1.93;1.80;;;19.70;61.10;20.40;97125.00;;;;5059943;28;20256;-89
2022/06/17 05:42:12;;;;;;;1.73;1.63;;;19.80;61.10;20.50;97127.00;;;;5059766;28;20186;-89
2022/06/17 05:44:42;;;;;;;1.87;1.70;;;19.90;61.00;20.60;97129.00;;;;5059767;28;20275;-89
2022/06/17 05:47:09;;;;;;;3.17;1.77;;;19.90;60.70;20.70;97129.00;;;;5052229;28;20238;-89
2022/06/17 05:49:36;;;;;;;2.23;1.90;;;20.00;60.60;20.80;97142.00;;;;5057744;28;20193;-89
2022/06/17 05:52:04;;;;;;;2.20;1.80;;;20.10;61.40;20.80;97145.00;;;;5060397;28;21543;-88
2022/06/17 05:54:31;;;;;;;1.80;1.70;;;20.20;60.20;21.00;97143.00;;;;5060481;28;20205;-88
2022/06/17 05:56:58;;;;;;;1.60;1.50;;;20.20;59.80;21.00;97149.00;;;;5055101;28;20190;-89
2022/06/17 05:59:25;;;;;;;1.70;1.60;;;20.30;59.90;21.10;97149.00;;;;5053528;28;20220;-85
2022/06/17 06:01:54;;;;;;;2.57;1.87;;;20.40;59.90;21.20;97156.00;;;;5053914;28;20266;-85
2022/06/17 06:04:21;;;;;;;1.60;1.50;;;20.50;59.60;21.30;97158.00;;;;5053234;28;20196;-85
2022/06/17 06:06:51;;;;;;;2.03;1.90;;;20.60;59.40;21.40;97166.00;;;;5058456;28;20199;-85
2022/06/17 06:09:18;;;;;;;1.70;1.60;;;20.70;59.40;21.50;97155.00;;;;5074074;28;20259;-85
2022/06/17 06:11:45;;;;;;;1.83;1.50;;;20.80;59.50;21.60;97165.00;;;;5070612;28;20191;-85
2022/06/17 06:14:12;;;;;;;1.93;1.70;;;20.90;59.60;21.70;97162.00;;;;5053723;28;20231;-85
2022/06/17 06:16:39;;;;;;;1.60;1.50;;;21.00;59.30;21.80;97167.00;;;;5053256;28;20228;-85
2022/06/17 06:19:08;;;;;;;2.77;1.60;;;21.00;59.20;21.90;97179.00;;;;5052736;28;20217;-85
2022/06/17 06:21:35;;;;;;;1.83;1.63;;;21.10;59.10;22.00;97183.00;;;;5053268;28;20220;-85
2022/06/17 06:24:05;;;;;;;1.83;1.43;;;21.20;59.20;22.20;97183.00;;;;5052699;28;20238;-85
2022/06/17 06:26:32;;;;;;;1.90;1.70;;;21.30;59.30;22.30;97184.00;;;;5053594;28;20734;-86
2022/06/17 06:28:59;;;;;;;1.60;1.50;;;21.40;59.30;22.40;97183.00;;;;5052857;28;20778;-85
2022/06/17 06:31:31;;;;;;;2.70;1.80;;;21.50;59.00;22.50;97189.00;;;;5055242;28;20199;-84
2022/06/17 06:33:58;;;;;;;2.03;1.80;;;21.60;58.80;22.60;97189.00;;;;5053131;28;20632;-84
2022/06/17 06:36:27;;;;;;;1.60;1.50;;;21.70;58.50;22.70;97182.00;;;;5053535;28;20256;-84
2022/06/17 06:38:54;;;;;;;1.87;1.77;;;21.80;58.70;22.70;97184.00;;;;5087641;22;20223;-84
2022/06/17 06:41:22;;;;;;;1.70;1.60;;;21.90;58.50;22.80;97195.00;;;;5084241;28;20215;-83
2022/06/17 06:43:51;;;;;;;2.23;1.73;;;21.90;58.40;22.90;97196.00;;;;5075759;28;20206;-84
2022/06/17 06:46:21;;;;;;;1.70;1.60;;;22.00;58.50;23.00;97194.00;;;;5076633;28;20203;-83
2022/06/17 06:48:48;;;;;;;1.77;1.67;;;22.10;58.80;23.10;97201.00;;;;5075339;28;20238;-84
2022/06/17 06:51:16;;;;;;;2.20;1.60;;;22.20;58.90;23.20;97202.00;;;;5075750;28;20216;-84
2022/06/17 06:53:45;;;;;;;1.77;1.67;;;22.30;58.70;23.30;97202.00;;;;5076788;28;20200;-85
2022/06/17 06:56:12;;;;;;;2.47;1.70;;;22.40;58.50;23.30;97199.00;;;;5077570;28;20196;-83
2022/06/17 06:58:40;;;;;;;3.17;1.70;;;22.40;58.10;23.40;97212.00;;;;5073822;28;20289;-84
2022/06/17 07:01:07;;;;;;;1.73;1.60;;;22.50;58.30;23.50;97204.00;;;;5073891;28;20591;-85
2022/06/17 07:03:35;;;;;;;1.70;1.60;;;22.60;58.00;23.60;97200.00;;;;5064712;28;20197;-84
2022/06/17 07:06:05;;;;;;;2.00;1.90;;;22.70;57.70;23.80;97206.00;;;;5066320;28;20616;-84
2022/06/17 07:08:36;;;;;;;1.87;1.77;;;22.80;58.10;23.90;97213.00;;;;5075877;28;20277;-84
2022/06/17 07:11:10;;;;;;;1.87;1.77;;;22.90;58.20;24.10;97221.00;;;;5082275;28;20234;-85
2022/06/17 07:13:38;;;;;;;1.73;1.60;;;23.10;58.30;24.30;97224.00;;;;5085303;28;20197;-84
2022/06/17 07:16:07;;;;;;;1.73;1.63;;;23.20;58.10;24.40;97231.00;;;;5094702;28;20594;-85
2022/06/17 07:18:37;;;;;;;1.90;1.80;;;23.40;57.80;24.60;97228.00;;;;5084014;28;20241;-84
2022/06/17 07:21:11;;;;;;;1.83;1.73;;;23.50;57.50;24.80;97226.00;;;;5074196;28;20247;-85
2022/06/17 07:23:40;;;;;;;2.20;2.00;;;23.70;57.20;24.90;97231.00;;;;5073889;28;20693;-85
2022/06/17 07:26:15;;;;;;;1.60;1.50;;;23.80;56.70;25.10;97234.00;;;;5073630;28;20245;-84
2022/06/17 07:28:42;;;;;;;1.60;1.50;;;24.00;56.80;25.30;97228.00;;;;5073650;28;20211;-84
2022/06/17 07:31:10;;;;;;;2.20;1.50;;;24.10;56.50;25.40;97238.00;;;;5070604;28;20247;-84
2022/06/17 07:33:37;;;;;;;1.60;1.50;;;24.30;57.10;25.60;97242.00;;;;5069849;28;20296;-84
2022/06/17 07:36:07;;;;;;;1.80;1.70;;;24.40;56.10;25.80;97241.00;;;;5074273;28;20203;-84
2022/06/17 07:41:26;;;;;;;2.27;1.43;;;24.70;55.40;26.10;97240.00;;;;5075619;28;20230;-84
2022/06/17 07:43:54;;;;;;;1.50;1.40;;;24.90;54.70;26.30;97238.00;;;;5075087;28;20192;-84
2022/06/17 07:46:23;;;;;;;1.53;1.43;;;25.10;54.00;26.40;97233.00;;;;5074111;28;20219;-84
2022/06/17 07:48:50;;;;;;;2.10;1.30;;;25.20;53.80;26.60;97241.00;;;;5073701;28;20268;-84
2022/06/17 07:51:17;;;;;;;1.77;1.67;;;25.30;53.60;26.70;97248.00;;;;5074087;28;20701;-84
2022/06/17 07:53:45;;;;;;;1.80;1.47;;;25.50;53.60;26.90;97244.00;;;;5087168;28;20710;-81
2022/06/17 07:56:15;;;;;;;1.60;1.50;;;25.60;53.70;27.10;97249.00;;;;5077261;28;20437;-84
2022/06/17 07:58:44;;;;;;;1.60;1.50;;;25.80;53.10;27.30;97252.00;;;;5076946;28;20204;-84
2022/06/17 08:01:13;;;;;;;2.83;1.40;;;25.90;52.90;27.40;97253.00;;;;5074597;28;20215;-84
2022/06/17 08:03:40;;;;;;;2.47;1.40;;;26.10;53.20;27.60;97264.00;;;;5077926;28;20259;-83
2022/06/17 08:06:10;;;;;;;4.70;1.70;;;26.20;52.50;27.70;97260.00;;;;5080307;28;20777;-84
2022/06/17 08:08:37;;;;;;;1.43;1.33;;;26.40;52.00;27.90;97259.00;;;;5077592;28;20232;-83
2022/06/17 08:11:05;;;;;;;2.07;1.70;;;26.50;52.00;28.00;97260.00;;;;5078583;28;20216;-84
2022/06/17 08:13:32;;;;;;;1.40;1.30;;;26.70;51.90;28.20;97267.00;;;;5076394;28;20196;-82
2022/06/17 08:16:05;;;;;;;1.70;1.60;;;26.80;52.00;28.40;97263.00;;;;5076497;28;20196;-84
2022/06/17 08:18:33;;;;;;;2.23;1.30;;;26.90;51.80;28.60;97266.00;;;;5074420;28;20188;-84
2022/06/17 08:21:01;;;;;;;1.85;1.48;;;27.10;51.60;28.90;97266.00;;;;5075000;28;20243;-83
2022/06/17 08:23:28;;;;;;;1.80;1.35;;;27.20;51.30;29.10;97267.00;;;;5075217;28;20613;-84
2022/06/17 08:25:57;;;;;;;1.35;1.25;;;27.40;50.50;29.30;97272.00;;;;5076692;28;20246;-85
2022/06/17 08:28:25;;;;;;;1.67;1.58;;;27.50;50.80;29.40;97273.00;;;;5084265;28;20310;-86
2022/06/17 08:30:56;;;;;;;1.52;1.42;;;27.70;50.30;29.50;97273.00;;;;5072054;28;20247;-84
2022/06/17 08:33:29;;;;;;;1.48;1.38;;;27.80;50.10;29.60;97280.00;;;;5072468;28;20196;-84
2022/06/17 08:36:02;;;;;;;2.20;1.60;;;28.00;50.50;29.80;97275.00;;;;5072941;28;20196;-84
2022/06/17 08:38:34;;;;;;;1.80;1.70;;;28.10;49.60;29.90;97279.00;;;;5072645;28;20200;-87
2022/06/17 08:41:14;;;;;;;1.50;1.40;;;28.30;49.40;30.10;97284.00;;;;5079676;28;20230;-85
2022/06/17 08:44:07;;;;;;;1.75;1.60;;;28.40;49.10;30.20;97281.00;;;;5078777;28;20216;-86
2022/06/17 08:46:52;;;;;;;2.80;1.80;;;28.60;48.80;30.40;97280.00;;;;5072419;28;20688;-85
2022/06/17 08:49:56;;;;;;;1.80;1.70;;;28.70;49.10;30.50;97292.00;;;;5072072;28;20215;-86
2022/06/17 08:52:48;;;;;;;2.55;1.40;;;28.80;47.60;30.70;97296.00;;;;5072231;28;20283;-86
2022/06/17 08:55:27;;;;;;;1.40;1.30;;;29.00;47.60;30.80;97296.00;;;;5067412;28;20624;-86
2022/06/17 08:58:01;;;;;;;1.35;1.25;;;29.10;47.60;30.90;97291.00;;;;5071716;28;20188;-85
2022/06/17 09:00:39;;;;;;;1.60;1.50;;;29.20;47.50;31.10;97298.00;;;;5072349;28;20722;-86
2022/06/17 09:03:41;;;;;;;2.58;1.55;;;29.30;47.30;31.20;97303.00;;;;5076324;28;20180;-86
2022/06/17 09:06:24;;;;;;;2.45;1.90;;;29.40;46.40;31.40;97309.00;;;;5074978;28;20695;-87
2022/06/17 09:09:25;;;;;;;1.48;1.33;;;29.60;46.20;31.50;97309.00;;;;5075389;28;20224;-86
2022/06/17 09:12:03;;;;;;;2.80;1.08;;;29.70;45.60;31.60;97304.00;;;;5075341;28;20220;-86
2022/06/17 09:14:48;;;;;;;1.38;1.27;;;29.90;45.50;31.80;97311.00;;;;5073680;28;20307;-86
2022/06/17 09:17:28;;;;;;;2.75;1.30;;;30.00;44.70;31.90;97315.00;;;;5070178;28;20745;-86
2022/06/17 09:20:02;;;;;;;1.30;1.20;;;30.20;44.30;32.00;97312.00;;;;5074921;28;20285;-85
2022/06/17 09:22:37;;;;;;;1.35;1.25;;;30.30;43.90;32.10;97307.00;;;;5074031;28;20199;-86
2022/06/17 09:25:08;;;;;;;1.40;1.30;;;30.40;43.50;32.20;97303.00;;;;5075386;28;20249;-86
2022/06/17 09:27:39;;;;;;;1.38;1.30;;;30.50;43.50;32.40;97304.00;;;;5074017;28;20193;-86
2022/06/17 09:30:15;;;;;;;2.63;1.20;;;30.60;43.40;32.50;97304.00;;;;5060311;28;20270;-86
2022/06/17 09:32:50;;;;;;;1.67;1.10;;;30.80;43.40;32.70;97307.00;;;;5071003;28;20227;-86
2022/06/17 09:35:26;;;;;;;1.55;1.40;;;31.00;43.40;32.90;97298.00;;;;5062510;28;20241;-86
2022/06/17 09:38:01;;;;;;;1.20;1.10;;;31.10;42.70;33.00;97298.00;;;;5067711;28;20639;-86
2022/06/17 09:40:34;;;;;;;2.13;1.20;;;31.40;42.90;33.20;97307.00;;;;5074799;28;20231;-85
2022/06/17 09:43:11;;;;;;;1.65;0.90;;;31.50;42.30;33.30;97303.00;;;;5075424;28;20250;-86
2022/06/17 09:45:45;;;;;;;1.10;1.00;;;31.80;40.70;33.50;97307.00;;;;5065215;28;20219;-85
2022/06/17 09:48:21;;;;;;;1.05;1.00;;;32.00;40.80;33.70;97306.00;;;;5074669;28;20219;-85
2022/06/17 09:50:55;;;;;;;1.27;1.17;;;32.10;40.00;33.80;97309.00;;;;5074430;28;20247;-85
2022/06/17 09:53:32;;;;;;;2.53;1.00;;;32.30;40.20;33.90;97304.00;;;;5074717;28;20237;-82
2022/06/17 09:56:09;;;;;;;0.98;0.98;;;32.50;40.10;34.00;97305.00;;;;5074312;28;20601;-83
2022/06/17 09:58:44;;;;;;;1.08;1.08;;;32.60;39.60;34.10;97307.00;;;;5074883;28;20203;-83
2022/06/17 10:01:13;;;;;;;1.15;1.02;;;32.70;39.20;34.20;97316.00;;;;5075521;28;20786;-83
2022/06/17 10:03:41;;;;;;;1.02;1.02;;;32.80;39.00;34.30;97313.00;;;;5074370;28;20195;-83
2022/06/17 10:06:32;;;;;;;4.40;1.00;;;32.80;38.90;34.30;97309.00;;;;5073458;28;20200;-86
2022/06/17 10:09:26;;;;;;;0.90;0.77;;;32.90;38.60;34.30;97305.00;;;;5067088;28;20238;-85
2022/06/17 10:12:01;;;;;;;0.80;0.80;;;33.00;39.20;34.40;97302.00;;;;5073384;28;20227;-86
2022/06/17 10:14:54;;;;;;;1.20;1.10;;;33.10;38.70;34.50;97300.00;;;;5077909;28;20558;-87
2022/06/17 10:20:48;;;;;;;1.00;1.00;;;33.20;38.10;34.60;97309.00;;;;5082112;28;20228;-85
2022/06/17 10:23:31;;;;;;;0.80;0.70;;;33.30;38.80;34.60;97303.00;;;;5079108;28;20240;-85
2022/06/17 10:26:15;;;;;;;0.98;0.90;;;33.40;38.10;34.60;97300.00;;;;5074773;28;20287;-85
2022/06/17 10:29:13;;;;;;;1.05;0.90;;;33.50;37.30;34.50;97301.00;;;;5073406;28;20211;-84
2022/06/17 10:31:45;;;;;;;1.10;0.70;;;33.50;37.00;34.50;97298.00;;;;5072798;28;20635;-83
2022/06/17 10:34:18;;;;;;;0.73;0.63;;;33.60;37.90;34.60;97299.00;;;;5068365;28;20222;-82
2022/06/17 10:36:49;;;;;;;1.17;0.90;;;33.60;37.20;34.60;97292.00;;;;5073947;28;20203;-83
2022/06/17 10:39:20;;;;;;;0.88;0.65;;;33.70;37.00;34.50;97300.00;;;;5073380;28;20300;-83
2022/06/17 10:41:49;;;;;;;0.90;0.90;;;33.80;36.70;34.50;97302.00;;;;5073171;28;20724;-82
2022/06/17 10:44:22;;;;;;;1.73;0.98;;;33.80;36.50;34.50;97304.00;;;;5068308;28;20188;-83
2022/06/17 10:47:00;;;;;;;0.75;0.73;;;33.90;36.40;34.40;97300.00;;;;5072698;28;20192;-83
2022/06/17 10:49:35;;;;;;;1.88;0.82;;;33.90;35.70;34.40;97299.00;;;;5073660;28;20262;-82
2022/06/17 10:52:11;;;;;;;0.90;0.70;;;34.00;36.00;34.40;97297.00;;;;5073808;28;20272;-81
2022/06/17 10:54:39;;;;;;;0.73;0.60;;;34.10;35.60;34.40;97293.00;;;;5073784;28;20592;-84
2022/06/17 10:57:12;;;;;;;1.00;0.70;;;34.10;35.60;34.40;97289.00;;;;5073856;28;20215;-82
2022/06/17 10:59:42;;;;;;;0.90;0.70;;;34.00;35.30;34.30;97290.00;;;;5074167;28;20219;-83
2022/06/17 11:02:29;;;;;;;1.10;0.80;;;34.00;36.00;34.20;97304.00;;;;5083739;28;20200;-82
2022/06/17 11:04:59;;;;;;;0.82;0.82;;;33.90;35.00;34.00;97297.00;;;;5073594;28;20187;-83
2022/06/17 11:07:32;;;;;;;0.70;0.70;;;33.70;35.30;33.80;97303.00;;;;5073975;28;20192;-82
2022/06/17 11:10:06;;;;;;;0.90;0.80;;;33.50;34.90;33.50;97306.00;;;;5087799;22;20230;-82
2022/06/17 11:12:43;;;;;;;2.03;1.00;;;33.30;34.70;33.30;97301.00;;;;5072579;28;20192;-82
2022/06/17 11:15:25;;;;;;;1.00;0.77;;;33.00;34.80;33.00;97292.00;;;;5072661;28;20568;-82
2022/06/17 11:17:57;;;;;;;0.70;0.70;;;32.70;34.70;32.70;97290.00;;;;5069353;28;20216;-82
2022/06/17 11:20:29;;;;;;;0.85;0.85;;;32.40;35.90;32.50;97292.00;;;;5074786;28;20223;-82
2022/06/17 11:23:01;;;;;;;1.20;1.05;;;32.20;35.90;32.30;97296.00;;;;5073393;28;20198;-83
2022/06/17 11:25:38;;;;;;;0.80;0.80;;;31.90;35.60;32.10;97296.00;;;;5072070;28;20552;-82